Tiempo atmosférico en la estación meteorológica de Sant Pau De Seguries, Girona (863 m.)



Fecha
DESCASC
Temp. máxima en grados centígrados (hora)
DESCASC
Temp. mínima en grados centígrados (hora)
DESCASC
Temp. media en grados centígrados
DESCASC
Racha de viento máxima en m/sg (hora)
DESCASC
Velocidad máxima media en intervalos de 10 minutos(hora)
DESCASC
Precipitaciones diarias en mm
DESCASC
Precipitaciones de 00:00 a 06:00 en mm
DESCASC
Precipitaciones de 06:00 a 12:00 en mm
DESCASC
Precipitaciones de 12:00 a 18:00 en mm
DESCASC
Precipitaciones de 18:00 a 24:00 en mm
DESCASC
02-07-2020 25.9 (15:00) 15.6 (23:10) 20.8 7.78 (15:20) 3.89 (15:20) 8 1.4 0.4 1 5.2
01-07-2020 29.3 (16:00) 16.6 (07:40) 22.9 6.67 (18:20) 3.33 (18:20) 0.6 0.6 0 0 0
30-06-2020 26.1 (18:10) 16.8 (00:00) 21.4 6.11 (13:30) 2.78 (14:00) 0.4 0.4 0 0 0
29-06-2020 22.6 (12:50) 16.1 (00:00) 19.4 5.28 (12:40) 2.78 (16:00) 1 0 0 0 1
28-06-2020 24.6 (12:30) 14.8 (00:00) 19.7 5.28 (12:40) 2.78 (14:00) 1.6 0 0 1.6 0
27-06-2020 25.9 (15:40) 11.5 (00:00) 18.7 6.11 (17:30) 3.06 (17:40) 0.2 0 0 0 0.2
26-06-2020 27.7 (17:10) 12.5 (00:00) 20.1 7.5 (16:20) 2.78 (13:20) 0 0 0 0 0
25-06-2020 25.7 (12:20) 12.3 (00:00) 19 6.39 (23:59) 3.06 (23:59) 2.2 0 0 2 0.2
24-06-2020 26.1 (15:20) 14.1 (00:00) 20.1 5.56 (05:50) 2.5 (07:00) 0 0 0 0 0
23-06-2020 25.3 (15:30) 15.4 (00:00) 20.3 5.83 (10:10) 2.5 (17:00) 0 0 0 0 0
22-06-2020 24.2 (14:20) 9.4 (00:00) 16.8 6.11 (14:50) 3.06 (14:30) 0 0 0 0 0
21-06-2020 24.4 (17:00) 12.1 (00:00) 18.3 6.11 (08:20) 2.78 (08:20) 0 0 0 0 0
20-06-2020 21.3 (13:00) 11.4 (00:00) 16.3 5.28 (16:40) 2.5 (12:40) 4 0 0 0 4
19-06-2020 20.3 (13:40) 8.9 (00:00) 14.6 7.22 (11:30) 3.33 (12:20) 0.8 0 0.6 0 0.2
18-06-2020 17.7 (14:40) 10 (00:00) 13.9 6.94 (12:30) 3.61 (15:00) 4.2 0.2 0.2 0 3.8
17-06-2020 16.7 (14:00) 7.9 (00:00) 12.3 5.56 (14:20) 2.5 (10:50) 11.2 0 0 10.2 1
16-06-2020 15.2 (13:30) 10.6 (00:00) 12.9 6.67 (13:40) 3.33 (14:00) 7.2 0 4.2 1.4 1.6
15-06-2020 20.9 (13:00) 8.6 (00:00) 14.8 7.5 (12:30) 3.33 (15:00) 0 0 0 0 0
14-06-2020 18.5 (15:20) 7 (00:00) 12.8 5 (16:40) 2.78 (16:40) 8.2 0 0 0 8.2
13-06-2020 19.5 (11:50) 5.4 (00:00) 12.5 6.11 (12:20) 2.5 (12:20) 1 0 0 0.8 0.2
12-06-2020 19.5 (17:00) 9.1 (00:00) 14.3 11.67 (14:00) 5.28 (14:50) 6.6 1 5.6 0 0
11-06-2020 17.5 (15:40) 9.3 (00:00) 13.4 8.61 (14:40) 3.89 (11:00) 4.6 4.2 0 0 0.4
10-06-2020 16.7 (12:20) 6.5 (00:00) 11.6 5.83 (15:00) 3.06 (15:00) 11 0 0 0.6 10.4
09-06-2020 14.7 (14:10) 6.4 (00:00) 10.5 5 (14:30) 2.5 (14:30) 0.6 0 0 0.4 0.2
08-06-2020 14 (11:40) 8.8 (06:10) 11.4 5 (12:10) 2.5 (12:10) 8.8 2.6 0.8 5.2 0.2
07-06-2020 14.2 (11:00) 10 (00:00) 12.1 5.28 (12:10) 2.5 (15:30) 37.6 9 1 15.4 12.2
06-06-2020 19.1 (13:40) 10.4 (00:00) 14.8 5.56 (13:50) 2.78 (14:00) 12.8 0 0 0 12.8
05-06-2020 17.9 (16:30) 6.2 (00:00) 12 4.17 (14:10) 2.22 (13:50) 0 0 0 0 0
04-06-2020 13.9 (15:40) 8.4 (00:00) 11.1 5.28 (16:40) 2.5 (12:40) 23.6 0 7.4 15 1.2
03-06-2020 20.7 (12:00) 12.6 (00:00) 16.7 8.33 (21:10) 3.06 (21:10) 14.2 0 0.2 12.2 1.8

Gráficas

Temp. máximas Temp. mínimas Temp. medias Precipitaciones Rachas de viento máximas Velocidades máximas media en intervalos de 10 minutos

Datos horarios

Fecha y hora oficial Temperatura (ºC) Velocidad del viento (km/h) Dirección del viento Racha (km/h) Dirección de racha Precipitación (mm) Presión (hPa) Tendencia (hPa) Humedad (%)
2020-07-02 23:00:00 15.7 5 Sudoeste 12 Sudoeste 0 -- -- 100
2020-07-02 22:00:00 16 2 Sudeste 15 Sudeste 0 -- -- 97
2020-07-02 21:00:00 17.5 4 Este 14 Este 0 -- -- 91
2020-07-02 20:00:00 16.9 6 Nordeste 19 Nordeste 0 -- -- 95
2020-07-02 19:00:00 17.6 4 Norte 19 Nordeste 4.6 -- -- 95
2020-07-02 18:00:00 19.1 5 Este 17 Nordeste 0 -- -- 91
2020-07-02 17:00:00 19.7 8 Nordeste 18 Nordeste 0 -- -- 89
2020-07-02 16:00:00 20.4 11 Sudeste 28 Este 0 -- -- 81
2020-07-02 15:00:00 25.9 5 Oeste 25 Oeste 0 -- -- 66
2020-07-02 14:00:00 24.7 12 Sudoeste 24 Sudoeste 0 -- -- 71
2020-07-02 13:00:00 22.3 7 Sudoeste 18 Sur 1 -- -- 78
2020-07-02 12:00:00 22 7 Sudoeste 21 Sudoeste 0 -- -- 75
2020-07-02 11:00:00 23 5 Sudoeste 12 Sudoeste 0 -- -- 70
2020-07-02 10:00:00 20.3 3 Sudoeste 5 Norte 0 -- -- 84
2020-07-02 09:00:00 18.3 0 Calma 10 Sudoeste 0 -- -- 99
2020-07-02 08:00:00 17.5 2 Norte 13 Sudoeste 0.4 -- -- 100
2020-07-02 07:00:00 17.3 4 Sudoeste 9 Sudoeste 0 -- -- 100
2020-07-02 06:00:00 17.6 5 Sudoeste 9 Sur 0.4 -- -- 100
2020-07-02 05:00:00 17.5 4 Sudoeste 13 Sudoeste 1 -- -- 100
2020-07-02 04:00:00 17.1 0 Calma 4 Sur 0 -- -- 100
2020-07-02 03:00:00 17.1 0 Calma 6 Sur 0 -- -- 100
2020-07-02 02:00:00 17.3 0 Calma 4 Sur 0 -- -- 97
2020-07-02 01:00:00 18.4 0 Calma 6 Este 0 -- -- 95
2020-07-02 00:00:00 19 0 Calma 6 Norte 0 -- -- 94
2020-07-01 23:00:00 19.6 3 Nordeste 8 Este 0 -- -- 91
2020-07-01 22:00:00 20.6 2 Norte 13 Sudeste 0 -- -- 87
2020-07-01 21:00:00 21.9 5 Sudeste 12 Este 0 -- -- 79
2020-07-01 20:00:00 23.6 5 Nordeste 23 Este 0 -- -- 74
2020-07-01 19:00:00 24.9 10 Nordeste 24 Este 0 -- -- 71
2020-07-01 18:00:00 26.7 8 Este 21 Este 0 -- -- 64
2020-07-01 17:00:00 27.5 7 Nordeste 17 Norte 0 -- -- 62
2020-07-01 16:00:00 29.3 8 Sudoeste 20 Oeste 0 -- -- 44
2020-07-01 15:00:00 28.6 10 Sudoeste 21 Oeste 0 -- -- 43
2020-07-01 14:00:00 28.1 7 Sudoeste 23 Oeste 0 -- -- 44
2020-07-01 13:00:00 27.6 9 Sudoeste 21 Sudoeste 0 -- -- 51
2020-07-01 12:00:00 26.8 6 Sudoeste 15 Sudoeste 0 -- -- 62
2020-07-01 11:00:00 24.2 3 Sudeste 8 Sudoeste 0 -- -- 69
2020-07-01 10:00:00 21.5 4 Sur 10 Sur 0 -- -- 79
2020-07-01 09:00:00 18.8 5 Sudoeste 12 Sudoeste 0 -- -- 100
2020-07-01 08:00:00 16.7 6 Sudoeste 15 Oeste 0 -- -- 100
2020-07-01 07:00:00 16.9 7 Sudoeste 16 Sudoeste 0 -- -- 100
2020-07-01 06:00:00 17.6 5 Sudoeste 14 Oeste 0.4 -- -- 100
2020-07-01 05:00:00 18 5 Noroeste 10 Sudoeste 0.2 -- -- 99
2020-07-01 04:00:00 18.8 4 Sudoeste 15 Sudoeste 0 -- -- 96
2020-07-01 03:00:00 19.3 10 Sudoeste 21 Sur 0 -- -- 98
2020-07-01 02:00:00 19 8 Sudoeste 21 Sudoeste 0 -- -- 100
2020-07-01 01:00:00 18.6 5 Sudoeste 16 Oeste 0 -- -- 100
2020-07-01 00:00:00 18.9 4 Sudoeste 9 Sur 0 -- -- 100
2020-06-30 23:00:00 18.9 0 Calma 4 Sur 0 -- -- 98
2020-06-30 22:00:00 20.4 0 Calma 8 Norte 0 -- -- 96
2020-06-30 21:00:00 22.1 3 Norte 8 Norte 0 -- -- 91
2020-06-30 20:00:00 23.7 3 Nordeste 16 Oeste 0 -- -- 86
2020-06-30 19:00:00 25.2 7 Sudoeste 17 Oeste 0 -- -- 76
2020-06-30 18:00:00 26 9 Oeste 19 Oeste 0 -- -- 73
2020-06-30 17:00:00 24.7 7 Sudoeste 21 Sudoeste 0 -- -- 78
2020-06-30 16:00:00 24.2 9 Sudoeste 22 Oeste 0 -- -- 77
2020-06-30 15:00:00 22.8 8 Sudoeste 19 Sudoeste 0 -- -- 83
2020-06-30 14:00:00 21.6 10 Sudoeste 22 Sudoeste 0 -- -- 87
2020-06-30 13:00:00 20.6 9 Sudoeste 21 Oeste 0 -- -- 90
2020-06-30 12:00:00 20 8 Sudoeste 14 Sudoeste 0 -- -- 94
2020-06-30 11:00:00 19.1 3 Sudoeste 10 Nordeste 0 -- -- 100
2020-06-30 10:00:00 18.4 3 Sudoeste 10 Sudoeste 0 -- -- 100
2020-06-30 09:00:00 17.5 0 Calma 10 Nordeste 0 -- -- 100
2020-06-30 08:00:00 17.4 0 Calma 10 Oeste 0 -- -- 100
2020-06-30 07:00:00 17.1 3 Norte 7 Nordeste 0 -- -- 100
2020-06-30 06:00:00 16.9 0 Calma 6 Nordeste 0 -- -- 100
2020-06-30 05:00:00 16.8 2 Norte 11 Nordeste 0 -- -- 100
2020-06-30 04:00:00 17 0 Calma 4 Sudeste 0 -- -- 100
2020-06-30 03:00:00 16.9 0 Calma 6 Norte 0 -- -- 100
2020-06-30 02:00:00 16.9 2 Nordeste 6 Este 0.2 -- -- 100
2020-06-30 01:00:00 16.9 2 Nordeste 9 Este 0.2 -- -- 100
2020-06-30 00:00:00 17.1 3 Sudeste 6 Este 0.2 -- -- 100
2020-06-29 23:00:00 17.2 4 Sudeste 7 Este 0 -- -- 100
2020-06-29 22:00:00 17.6 0 Calma 8 Este 0 -- -- 100
2020-06-29 21:00:00 17.8 3 Este 9 Este 0.6 -- -- 98
2020-06-29 20:00:00 18.2 5 Este 10 Sudeste 0.2 -- -- 96
2020-06-29 19:00:00 19.2 2 Este 12 Nordeste 0 -- -- 93
2020-06-29 18:00:00 19.9 4 Este 10 Sudeste 0 -- -- 91
2020-06-29 17:00:00 20.8 5 Nordeste 14 Nordeste 0 -- -- 88
2020-06-29 16:00:00 21.2 10 Nordeste 17 Nordeste 0 -- -- 84
2020-06-29 15:00:00 22.6 5 Este 12 Sudeste 0 -- -- 78
2020-06-29 14:00:00 22.4 5 Nordeste 17 Este 0 -- -- 82
2020-06-29 13:00:00 22.4 8 Nordeste 19 Este 0 -- -- 82
2020-06-29 12:00:00 22.5 9 Este 17 Este 0 -- -- 81
2020-06-29 11:00:00 22 6 Sudeste 14 Sudeste 0 -- -- 81
2020-06-29 10:00:00 22 5 Nordeste 10 Este 0 -- -- 80
2020-06-29 09:00:00 19.1 0 Calma 3 Sudeste 0 -- -- 91
2020-06-29 08:00:00 16.9 3 Norte 6 Norte 0 -- -- 99
2020-06-29 07:00:00 16.3 0 Calma 8 Norte 0 -- -- 100
2020-06-29 06:00:00 16.4 0 Calma 6 Norte 0 -- -- 100
2020-06-29 05:00:00 16.5 2 Noroeste 7 Norte 0 -- -- 100
2020-06-29 04:00:00 16.8 2 Norte 4 Norte 0 -- -- 100
2020-06-29 03:00:00 16.7 0 Calma 3 Oeste 0 -- -- 100
2020-06-29 02:00:00 16.4 0 Calma 3 Oeste 0 -- -- 100
2020-06-29 01:00:00 17.4 0 Calma 4 Sur 0 -- -- 99
2020-06-29 00:00:00 18.2 0 Calma 5 Norte 0 -- -- 98
2020-06-28 23:00:00 19.5 4 Nordeste 8 Norte 0 -- -- 97
2020-06-28 22:00:00 20 0 Calma 8 Nordeste 0 -- -- 97
2020-06-28 21:00:00 20.8 3 Nordeste 8 Nordeste 0 -- -- 95
2020-06-28 20:00:00 21.2 4 Nordeste 10 Nordeste 0 -- -- 92
2020-06-28 19:00:00 21.4 5 Nordeste 13 Nordeste 0 -- -- 92
2020-06-28 18:00:00 21.6 6 Nordeste 10 Nordeste 0 -- -- 92
2020-06-28 17:00:00 21.8 8 Este 14 Nordeste 0 -- -- 85
2020-06-28 16:00:00 22.6 5 Nordeste 13 Este 0 -- -- 87
2020-06-28 15:00:00 21.1 3 Norte 17 Norte 1.6 -- -- 91
2020-06-28 14:00:00 23.1 10 Nordeste 16 Este 0 -- -- 74
2020-06-28 13:00:00 23.6 5 Sudeste 19 Este 0 -- -- 74
2020-06-28 12:00:00 24.1 5 Sudeste 15 Este 0 -- -- 73
2020-06-28 11:00:00 21.4 2 Norte 6 Norte 0 -- -- 82
2020-06-28 10:00:00 20.4 3 Oeste 7 Sudoeste 0 -- -- 86
2020-06-28 09:00:00 18.1 5 Sudoeste 9 Sudoeste 0 -- -- 96
2020-06-28 08:00:00 16.7 0 Calma 5 Sudeste 0 -- -- 99
2020-06-28 07:00:00 15.3 0 Calma 4 Sur 0 -- -- 100
2020-06-28 06:00:00 14.8 0 Calma 4 Sur 0 -- -- 100
2020-06-28 05:00:00 15.1 0 Calma 3 Sudoeste 0 -- -- 100
2020-06-28 04:00:00 15.6 0 Calma 3 Este 0 -- -- 100
2020-06-28 03:00:00 15.6 2 Sur 5 Este 0 -- -- 100
2020-06-28 02:00:00 15.7 0 Calma 5 Este 0 -- -- 100
2020-06-28 01:00:00 15.7 0 Calma 4 Sur 0 -- -- 99
2020-06-28 00:00:00 16.4 0 Calma 3 Sur 0 -- -- 98
2020-06-27 23:00:00 17.2 0 Calma 4 Sudeste 0 -- -- 95
2020-06-27 22:00:00 18.7 2 Sur 6 Sudeste 0.2 -- -- 92
2020-06-27 21:00:00 20.4 2 Sudeste 11 Este 0 -- -- 79
2020-06-27 20:00:00 21.8 6 Sudeste 15 Nordeste 0 -- -- 74
2020-06-27 19:00:00 22.9 6 Nordeste 20 Nordeste 0 -- -- 70
2020-06-27 18:00:00 24.5 9 Este 22 Este 0 -- -- 69
2020-06-27 17:00:00 25.2 10 Este 21 Este 0 -- -- 65
2020-06-27 16:00:00 25.9 7 Este 18 Este 0 -- -- 55
2020-06-27 15:00:00 25.2 7 Este 18 Este 0 -- -- 56
2020-06-27 14:00:00 24.8 9 Este 21 Este 0 -- -- 61
2020-06-27 13:00:00 24.2 10 Este 17 Este 0 -- -- 64
2020-06-27 12:00:00 23.7 5 Sur 12 Sudeste 0 -- -- 59
2020-06-27 11:00:00 23 5 Sudoeste 12 Sudoeste 0 -- -- 55
2020-06-27 10:00:00 20.4 6 Sudoeste 14 Sudoeste 0 -- -- 67
2020-06-27 09:00:00 16.9 7 Sudoeste 15 Oeste 0 -- -- 79
2020-06-27 08:00:00 13.9 2 Sudoeste 4 Sudoeste 0 -- -- 95
2020-06-27 07:00:00 11.6 0 Calma 3 Sur 0 -- -- 99
2020-06-27 06:00:00 12.1 0 Calma 3 Sudeste 0 -- -- 97
2020-06-27 05:00:00 13.1 0 Calma 3 Sur 0 -- -- 94
2020-06-27 04:00:00 14.6 0 Calma 4 Noroeste 0 -- -- 92
2020-06-27 03:00:00 15.2 2 Sudeste 6 Nordeste 0 -- -- 88
2020-06-27 02:00:00 15.6 3 Sur 7 Sur 0 -- -- 83
2020-06-27 01:00:00 15.9 5 Sudoeste 21 Sudoeste 0 -- -- 80
2020-06-27 00:00:00 14.4 2 Sur 5 Sudoeste 0 -- -- 89
2020-06-26 23:00:00 16.1 2 Sudeste 9 Noroeste 0 -- -- 81
2020-06-26 22:00:00 17.7 2 Sudeste 8 Oeste 0 -- -- 75
2020-06-26 21:00:00 19.4 0 Calma 5 Sur 0 -- -- 72
2020-06-26 20:00:00 23.2 4 Sur 20 Oeste 0 -- -- 56
2020-06-26 19:00:00 25.4 8 Sudoeste 23 Oeste 0 -- -- 48
2020-06-26 18:00:00 27 9 Sudoeste 22 Sudoeste 0 -- -- 50
2020-06-26 17:00:00 27.6 7 Oeste 27 Este 0 -- -- 46
2020-06-26 16:00:00 27.5 10 Sudoeste 24 Sudoeste 0 -- -- 48
2020-06-26 15:00:00 26.1 8 Este 19 Nordeste 0 -- -- 59
2020-06-26 14:00:00 25.5 5 Este 20 Este 0 -- -- 69
2020-06-26 13:00:00 25.7 7 Sudeste 15 Oeste 0 -- -- 62
2020-06-26 12:00:00 25.5 6 Sudoeste 15 Sudoeste 0 -- -- 59
2020-06-26 11:00:00 23.1 6 Sudoeste 13 Sudoeste 0 -- -- 67
2020-06-26 10:00:00 20.1 7 Sudoeste 14 Sudoeste 0 -- -- 78
2020-06-26 09:00:00 16 6 Sur 15 Oeste 0 -- -- 97
2020-06-26 08:00:00 13.4 4 Sudoeste 7 Sudoeste 0 -- -- 100
2020-06-26 07:00:00 12.7 2 Sudoeste 5 Sudoeste 0 -- -- 100
2020-06-26 06:00:00 12.6 3 Sur 8 Sudoeste 0 -- -- 100
2020-06-26 05:00:00 13.1 2 Oeste 8 Este 0 -- -- 98
2020-06-26 04:00:00 13.9 0 Calma 10 Nordeste 0 -- -- 96
2020-06-26 03:00:00 14.9 3 Este 12 Este 0 -- -- 88
2020-06-26 02:00:00 14.1 0 Calma 8 Nordeste 0 -- -- 100
2020-06-26 01:00:00 14.2 3 Sudoeste 19 Oeste 0 -- -- 100
2020-06-26 00:00:00 14.4 11 Sudoeste 23 Oeste 0 -- -- 100
2020-06-25 23:00:00 14.3 2 Sur 6 Noroeste 0 -- -- 99
2020-06-25 22:00:00 15.6 0 Calma 14 Oeste 0 -- -- 98
2020-06-25 21:00:00 16.3 5 Sudoeste 16 Sudoeste 0 -- -- 97
2020-06-25 20:00:00 16.8 5 Sudoeste 22 Oeste 0 -- -- 100
2020-06-25 19:00:00 16.5 7 Sudoeste 16 Oeste 0.2 -- -- 99
2020-06-25 18:00:00 17.2 4 Este 17 Nordeste 0.2 -- -- 86
2020-06-25 17:00:00 16.9 5 Sudoeste 14 Oeste 0.4 -- -- 96
2020-06-25 16:00:00 20.3 3 Sudoeste 9 Sudoeste 1.2 -- -- 90
2020-06-25 15:00:00 23.2 4 Este 17 Este 0.2 -- -- 82
2020-06-25 14:00:00 25.6 5 Este 17 Este 0 -- -- 66
2020-06-25 13:00:00 25.4 6 Sudeste 14 Este 0 -- -- 62
2020-06-25 12:00:00 25.4 4 Sudeste 9 Este 0 -- -- 61
2020-06-25 11:00:00 24.1 4 Sudoeste 13 Oeste 0 -- -- 59
2020-06-25 10:00:00 21.4 5 Sudoeste 12 Oeste 0 -- -- 70
2020-06-25 09:00:00 17.5 5 Sudoeste 10 Sudoeste 0 -- -- 82
2020-06-25 08:00:00 14.7 0 Calma 3 Sur 0 -- -- 96
2020-06-25 07:00:00 12.4 0 Calma 4 Sur 0 -- -- 99
2020-06-25 06:00:00 12.7 0 Calma 4 Sudoeste 0 -- -- 98
2020-06-25 05:00:00 13.6 0 Calma 3 Noroeste 0 -- -- 96
2020-06-25 04:00:00 14.6 0 Calma 4 Oeste 0 -- -- 95
2020-06-25 03:00:00 15.2 2 Nordeste 10 Este 0 -- -- 90
2020-06-25 02:00:00 15.2 2 Nordeste 8 Nordeste 0 -- -- 89
2020-06-25 01:00:00 15 0 Calma 12 Nordeste 0 -- -- 90
2020-06-25 00:00:00 16.1 3 Nordeste 11 Norte 0 -- -- 87
2020-06-24 23:00:00 18.3 4 Nordeste 15 Sudoeste 0 -- -- 81
2020-06-24 22:00:00 19.1 7 Sudoeste 18 Oeste 0 -- -- 81
2020-06-24 21:00:00 19.3 6 Sudoeste 14 Oeste 0 -- -- 91
2020-06-24 20:00:00 20.4 6 Norte 19 Norte 0 -- -- 85
2020-06-24 19:00:00 22.7 5 Noroeste 15 Oeste 0 -- -- 78
2020-06-24 18:00:00 24.2 4 Este 13 Este 0 -- -- 73
2020-06-24 17:00:00 25.3 6 Sur 19 Este 0 -- -- 67
2020-06-24 16:00:00 26 8 Sudeste 19 Este 0 -- -- 64
2020-06-24 15:00:00 26 6 Este 15 Sudoeste 0 -- -- 65
2020-06-24 14:00:00 25.2 5 Sudeste 17 Este 0 -- -- 70
2020-06-24 13:00:00 24.8 5 Sur 13 Sudeste 0 -- -- 67
2020-06-24 12:00:00 24.1 5 Sur 18 Oeste 0 -- -- 67
2020-06-24 11:00:00 23.4 6 Sudoeste 17 Oeste 0 -- -- 63
2020-06-24 10:00:00 21.3 9 Sudoeste 17 Sudoeste 0 -- -- 69
2020-06-24 09:00:00 18.9 5 Sudoeste 17 Oeste 0 -- -- 85
2020-06-24 08:00:00 16.2 4 Sudoeste 15 Oeste 0 -- -- 100
2020-06-24 07:00:00 14.6 9 Oeste 19 Sudoeste 0 -- -- 100
2020-06-24 06:00:00 14.6 9 Sudoeste 20 Sudoeste 0 -- -- 100
2020-06-24 05:00:00 14.6 4 Sudoeste 14 Oeste 0 -- -- 100
2020-06-24 04:00:00 14.8 3 Sudoeste 6 Sudoeste 0 -- -- 100
2020-06-24 03:00:00 14.6 0 Calma 8 Sudoeste 0 -- -- 100
2020-06-24 02:00:00 14.2 0 Calma 2 Sudoeste 0 -- -- 100
2020-06-24 01:00:00 14.6 0 Calma 2 Sur 0 -- -- 99
2020-06-24 00:00:00 15.4 0 Calma 3 Sur 0 -- -- 98
2020-06-23 23:00:00 16.5 0 Calma 2 Sur 0 -- -- 95
2020-06-23 22:00:00 18 0 Calma 3 Sur 0 -- -- 91
2020-06-23 21:00:00 20.3 0 Calma 7 Nordeste 0 -- -- 85
2020-06-23 20:00:00 21.6 3 Este 10 Este 0 -- -- 76
2020-06-23 19:00:00 22.2 5 Este 17 Nordeste 0 -- -- 73
2020-06-23 18:00:00 23.7 6 Sudeste 15 Este 0 -- -- 71
2020-06-23 17:00:00 24.5 9 Este 15 Este 0 -- -- 67
2020-06-23 16:00:00 24.7 6 Este 16 Nordeste 0 -- -- 65
2020-06-23 15:00:00 24.5 6 Este 12 Este 0 -- -- 67
2020-06-23 14:00:00 24 5 Sudeste 16 Este 0 -- -- 68
2020-06-23 13:00:00 23.2 4 Sudeste 15 Este 0 -- -- 70
2020-06-23 12:00:00 22 5 Este 17 Este 0 -- -- 70
2020-06-23 11:00:00 22.8 5 Este 21 Sur 0 -- -- 71
2020-06-23 10:00:00 21.7 5 Sur 18 Sudoeste 0 -- -- 69
2020-06-23 09:00:00 19.3 6 Sudoeste 14 Oeste 0 -- -- 87
2020-06-23 08:00:00 16.7 3 Norte 9 Norte 0 -- -- 84
2020-06-23 07:00:00 15.8 0 Calma 6 Nordeste 0 -- -- 86
2020-06-23 06:00:00 16 3 Norte 9 Norte 0 -- -- 91
2020-06-23 05:00:00 17.2 2 Oeste 9 Oeste 0 -- -- 100
2020-06-23 04:00:00 17.4 2 Sudoeste 6 Sudoeste 0 -- -- 98
2020-06-23 03:00:00 17.4 0 Calma 7 Sudoeste 0 -- -- 96
2020-06-23 02:00:00 17.4 3 Sudoeste 6 Oeste 0 -- -- 95
2020-06-23 01:00:00 17.7 0 Calma 4 Noroeste 0 -- -- 93
2020-06-23 00:00:00 18 3 Nordeste 6 Norte 0 -- -- 87
2020-06-22 23:00:00 18.4 3 Norte 5 Norte 0 -- -- 86
2020-06-22 22:00:00 19.2 3 Nordeste 10 Este 0 -- -- 83
2020-06-22 21:00:00 19.8 6 Este 11 Nordeste 0 -- -- 80
2020-06-22 20:00:00 20.6 6 Nordeste 12 Nordeste 0 -- -- 77
2020-06-22 19:00:00 21.6 7 Este 16 Nordeste 0 -- -- 74
2020-06-22 18:00:00 22.5 5 Nordeste 17 Sudeste 0 -- -- 71
2020-06-22 17:00:00 23.3 6 Nordeste 19 Este 0 -- -- 69
2020-06-22 16:00:00 23 9 Este 19 Este 0 -- -- 69
2020-06-22 15:00:00 24 8 Este 22 Sudeste 0 -- -- 67
2020-06-22 14:00:00 24 7 Este 21 Este 0 -- -- 66
2020-06-22 13:00:00 23.6 8 Este 15 Este 0 -- -- 61
2020-06-22 12:00:00 23.4 7 Este 14 Este 0 -- -- 61
2020-06-22 11:00:00 22.4 3 Sur 12 Sudoeste 0 -- -- 58
2020-06-22 10:00:00 19 4 Sudoeste 11 Sudoeste 0 -- -- 77
2020-06-22 09:00:00 15.8 2 Sudoeste 5 Oeste 0 -- -- 86
2020-06-22 08:00:00 12.4 0 Calma 5 Sudeste 0 -- -- 100
2020-06-22 07:00:00 9.5 0 Calma 4 Sur 0 -- -- 100
2020-06-22 06:00:00 9.7 0 Calma 6 Sur 0 -- -- 100
2020-06-22 05:00:00 10.1 0 Calma 5 Sur 0 -- -- 100
2020-06-22 04:00:00 10.6 2 Sudoeste 4 Sudoeste 0 -- -- 100
2020-06-22 03:00:00 11 0 Calma 7 Norte 0 -- -- 99
2020-06-22 02:00:00 11.8 2 Nordeste 6 Sudeste 0 -- -- 97
2020-06-22 01:00:00 13.3 2 Noroeste 9 Nordeste 0 -- -- 94
2020-06-22 00:00:00 14.8 4 Nordeste 10 Norte 0 -- -- 96
2020-06-21 23:00:00 16.5 0 Calma 10 Nordeste 0 -- -- 92
2020-06-21 22:00:00 18.3 4 Nordeste 10 Nordeste 0 -- -- 87
2020-06-21 21:00:00 19.9 4 Nordeste 9 Norte 0 -- -- 84
2020-06-21 20:00:00 21.7 4 Este 12 Nordeste 0 -- -- 73
2020-06-21 19:00:00 22.2 6 Este 14 Este 0 -- -- 69
2020-06-21 18:00:00 22.1 5 Este 16 Sudeste 0 -- -- 72
2020-06-21 17:00:00 24.4 7 Este 16 Sur 0 -- -- 66
2020-06-21 16:00:00 23.7 4 Este 13 Este 0 -- -- 72
2020-06-21 15:00:00 23.3 6 Sudeste 16 Este 0 -- -- 72
2020-06-21 14:00:00 23.6 8 Este 15 Este 0 -- -- 71
2020-06-21 13:00:00 23.2 6 Este 15 Este 0 -- -- 74
2020-06-21 12:00:00 22.6 3 Sudoeste 17 Sudoeste 0 -- -- 74
2020-06-21 11:00:00 20.3 8 Sudoeste 18 Sudoeste 0 -- -- 78
2020-06-21 10:00:00 17.6 6 Sudoeste 14 Sudoeste 0 -- -- 97
2020-06-21 09:00:00 14.3 5 Sudoeste 22 Oeste 0 -- -- 100
2020-06-21 08:00:00 12.5 8 Sudoeste 18 Sudoeste 0 -- -- 100
2020-06-21 07:00:00 12.4 3 Noroeste 16 Sudoeste 0 -- -- 100
2020-06-21 06:00:00 12.7 6 Oeste 18 Sudoeste 0 -- -- 100
2020-06-21 05:00:00 12.8 8 Oeste 17 Sudoeste 0 -- -- 100
2020-06-21 04:00:00 12.5 0 Calma 5 Norte 0 -- -- 100
2020-06-21 03:00:00 12.2 2 Sudoeste 8 Norte 0 -- -- 100
2020-06-21 02:00:00 13.1 0 Calma 6 Nordeste 0 -- -- 100
2020-06-21 01:00:00 13.7 2 Nordeste 8 Norte 0 -- -- 100
2020-06-21 00:00:00 14.2 0 Calma 5 Oeste 0 -- -- 100
2020-06-20 23:00:00 14.5 2 Sudoeste 8 Norte 0 -- -- 100
2020-06-20 22:00:00 15.5 0 Calma 7 Sudoeste 0.2 -- -- 100
2020-06-20 21:00:00 16.3 4 Sur 12 Este 1.6 -- -- 97
2020-06-20 20:00:00 17.2 0 Calma 5 Nordeste 1 -- -- 100
2020-06-20 19:00:00 17.3 0 Calma 10 Nordeste 1.2 -- -- 97
2020-06-20 18:00:00 18.1 6 Nordeste 18 Nordeste 0 -- -- 91
2020-06-20 17:00:00 18.7 6 Este 19 Sudeste 0 -- -- 87
2020-06-20 16:00:00 19.6 6 Este 18 Este 0 -- -- 80
2020-06-20 15:00:00 20.6 6 Este 14 Sudeste 0 -- -- 74
2020-06-20 14:00:00 20.1 5 Este 15 Sudeste 0 -- -- 74
2020-06-20 13:00:00 21.3 6 Sudeste 18 Este 0 -- -- 70
2020-06-20 12:00:00 20.3 6 Sudeste 15 Este 0 -- -- 70
2020-06-20 11:00:00 19.6 6 Este 11 Este 0 -- -- 72
2020-06-20 10:00:00 18.8 4 Este 8 Sur 0 -- -- 73
2020-06-20 09:00:00 15.8 4 Nordeste 9 Nordeste 0 -- -- 84
2020-06-20 08:00:00 12 0 Calma 4 Oeste 0 -- -- 100
2020-06-20 07:00:00 11.7 0 Calma 3 Nordeste 0 -- -- 100
2020-06-20 06:00:00 11.4 0 Calma 3 Nordeste 0 -- -- 100
2020-06-20 05:00:00 12.4 3 Nordeste 7 Nordeste 0 -- -- 100
2020-06-20 04:00:00 13 0 Calma 5 Sudoeste 0 -- -- 100
2020-06-20 03:00:00 13.7 3 Sudoeste 6 Oeste 0 -- -- 100
2020-06-20 02:00:00 13.8 0 Calma 6 Sudoeste 0 -- -- 100
2020-06-20 01:00:00 14 3 Sudoeste 6 Sudoeste 0 -- -- 100
2020-06-20 00:00:00 14.1 3 Sudoeste 5 Sudoeste 0.2 -- -- 100
2020-06-19 23:00:00 14.1 2 Sudoeste 4 Oeste 0 -- -- 100
2020-06-19 22:00:00 14.5 0 Calma 6 Sur 0 -- -- 98
2020-06-19 21:00:00 14.9 0 Calma 6 Norte 0 -- -- 96
2020-06-19 20:00:00 15.1 3 Norte 9 Nordeste 0 -- -- 95
2020-06-19 19:00:00 15.5 4 Norte 9 Nordeste 0 -- -- 91
2020-06-19 18:00:00 16.1 4 Nordeste 9 Este 0 -- -- 86
2020-06-19 17:00:00 16.6 6 Nordeste 15 Nordeste 0 -- -- 83
2020-06-19 16:00:00 17.5 4 Nordeste 10 Este 0 -- -- 80
2020-06-19 15:00:00 17.4 6 Nordeste 15 Nordeste 0 -- -- 79
2020-06-19 14:00:00 19.1 6 Este 21 Oeste 0 -- -- 68
2020-06-19 13:00:00 19.1 9 Sudoeste 24 Sudoeste 0 -- -- 71
2020-06-19 12:00:00 17.1 9 Sudoeste 26 Oeste 0 -- -- 81
2020-06-19 11:00:00 14.4 10 Sudoeste 21 Oeste 0 -- -- 89
2020-06-19 10:00:00 13.9 9 Sudoeste 20 Oeste 0 -- -- 96
2020-06-19 09:00:00 12.8 7 Oeste 13 Oeste 0 -- -- 100
2020-06-19 08:00:00 10.3 4 Sudoeste 8 Sudoeste 0.6 -- -- 100
2020-06-19 07:00:00 9.9 0 Calma 4 Sur 0 -- -- 100
2020-06-19 06:00:00 9.6 0 Calma 4 Sur 0 -- -- 100
2020-06-19 05:00:00 9.1 2 Sur 5 Noroeste 0 -- -- 100
2020-06-19 04:00:00 9.1 0 Calma 4 Sudeste 0 -- -- 100
2020-06-19 03:00:00 10.1 0 Calma 3 Norte 0 -- -- 100
2020-06-19 02:00:00 11 2 Sudoeste 7 Sur 0 -- -- 100
2020-06-19 01:00:00 11.5 0 Calma 4 Sudoeste 0 -- -- 100
2020-06-19 00:00:00 11.8 2 Sur 5 Sudeste 0 -- -- 100
2020-06-18 23:00:00 12.2 0 Calma 5 Sur 0.2 -- -- 100
2020-06-18 22:00:00 12.3 0 Calma 7 Este 0 -- -- 100
2020-06-18 21:00:00 12.3 4 Este 10 Sudeste 0 -- -- 100
2020-06-18 20:00:00 12.7 3 Sudeste 14 Este 3.6 -- -- 100
2020-06-18 19:00:00 13.4 6 Este 13 Sudeste 0 -- -- 96
2020-06-18 18:00:00 14.3 5 Este 12 Noroeste 0 -- -- 91
2020-06-18 17:00:00 14.3 7 Nordeste 15 Nordeste 0 -- -- 91
2020-06-18 16:00:00 14.6 5 Este 25 Sudeste 0 -- -- 90
2020-06-18 15:00:00 17 13 Este 24 Este 0 -- -- 78
2020-06-18 14:00:00 17.2 10 Este 21 Oeste 0 -- -- 76
2020-06-18 13:00:00 16.4 8 Sudoeste 25 Oeste 0 -- -- 81
2020-06-18 12:00:00 13.2 10 Sudoeste 20 Sudoeste 0 -- -- 94
2020-06-18 11:00:00 11.7 3 Sur 24 Sudoeste 0.2 -- -- 100
2020-06-18 10:00:00 11.1 6 Oeste 21 Sudoeste 0 -- -- 100
2020-06-18 09:00:00 10.8 4 Sur 15 Sudoeste 0 -- -- 100
2020-06-18 08:00:00 10.5 6 Sudoeste 17 Oeste 0 -- -- 100
2020-06-18 07:00:00 10.2 5 Sudoeste 12 Oeste 0 -- -- 100
2020-06-18 06:00:00 10.2 0 Calma 6 Oeste 0.2 -- -- 100
2020-06-18 05:00:00 10.3 3 Noroeste 6 Sudoeste 0 -- -- 100
2020-06-18 04:00:00 10.2 4 Sudoeste 8 Sudoeste 0 -- -- 100
2020-06-18 03:00:00 10.3 2 Oeste 7 Sudoeste 0 -- -- 100
2020-06-18 02:00:00 10.4 2 Sur 4 Sur 0 -- -- 100
2020-06-18 01:00:00 10.6 0 Calma 3 Oeste 0 -- -- 100
2020-06-18 00:00:00 11.3 3 Norte 5 Este 0.8 -- -- 100
2020-06-17 23:00:00 11.5 2 Norte 8 Norte 0.2 -- -- 100
2020-06-17 22:00:00 11.6 3 Nordeste 8 Nordeste 0 -- -- 100
2020-06-17 21:00:00 11.8 3 Este 6 Este 0 -- -- 100
2020-06-17 20:00:00 11.8 0 Calma 10 Sudeste 0 -- -- 100
2020-06-17 19:00:00 11.8 5 Sudeste 15 Este 0 -- -- 99
2020-06-17 18:00:00 12.3 8 Este 19 Este 2.2 -- -- 95
2020-06-17 17:00:00 13.4 6 Nordeste 15 Nordeste 7.8 -- -- 95
2020-06-17 16:00:00 14.3 2 Norte 17 Nordeste 0 -- -- 93
2020-06-17 15:00:00 15.3 4 Norte 20 Sudeste 0.2 -- -- 89
2020-06-17 14:00:00 16.7 6 Este 15 Este 0 -- -- 77
2020-06-17 13:00:00 16 7 Sudeste 15 Sudoeste 0 -- -- 81
2020-06-17 12:00:00 14.8 5 Sudeste 15 Sudoeste 0 -- -- 84
2020-06-17 11:00:00 14.2 8 Sudoeste 15 Sudoeste 0 -- -- 85
2020-06-17 10:00:00 12.4 5 Sudoeste 10 Oeste 0 -- -- 100
2020-06-17 09:00:00 10.7 5 Sudoeste 10 Oeste 0 -- -- 100
2020-06-17 08:00:00 9.5 0 Calma 4 Sur 0 -- -- 100
2020-06-17 07:00:00 8.6 0 Calma 6 Oeste 0 -- -- 100
2020-06-17 06:00:00 8.6 3 Sudoeste 5 Sudoeste 0 -- -- 100
2020-06-17 05:00:00 8.5 3 Sudoeste 9 Este 0 -- -- 100
2020-06-17 04:00:00 8 4 Este 8 Este 0 -- -- 100
2020-06-17 03:00:00 8.5 0 Calma 9 Norte 0 -- -- 100
2020-06-17 02:00:00 9.3 3 Norte 8 Norte 0 -- -- 100
2020-06-17 01:00:00 9.8 4 Norte 8 Noroeste 0 -- -- 100
2020-06-17 00:00:00 10.6 3 Noroeste 9 Oeste 0 -- -- 100
2020-06-16 23:00:00 11.1 2 Oeste 11 Oeste 0 -- -- 100
2020-06-16 22:00:00 11.7 4 Oeste 10 Sudoeste 0 -- -- 100
2020-06-16 21:00:00 12.3 3 Sudoeste 9 Sur 0 -- -- 99
2020-06-16 20:00:00 13 4 Sudoeste 8 Oeste 0 -- -- 99
2020-06-16 19:00:00 13.1 0 Calma 14 Oeste 1.6 -- -- 96
2020-06-16 18:00:00 14.5 4 Sudoeste 10 Noroeste 0 -- -- 93
2020-06-16 17:00:00 14.8 6 Noroeste 14 Oeste 0 -- -- 91
2020-06-16 16:00:00 14.6 6 Sudoeste 18 Sudoeste 0 -- -- 97
2020-06-16 15:00:00 13.7 6 Oeste 20 Oeste 1.2 -- -- 98
2020-06-16 14:00:00 14.6 12 Sudoeste 24 Oeste 0 -- -- 92
2020-06-16 13:00:00 14.3 9 Sudoeste 21 Sudoeste 0.2 -- -- 99
2020-06-16 12:00:00 13.6 8 Sudoeste 22 Oeste 0.8 -- -- 100
2020-06-16 11:00:00 13.9 12 Sudoeste 20 Oeste 0.4 -- -- 100
2020-06-16 10:00:00 13.4 5 Sudoeste 12 Sudoeste 1 -- -- 100
2020-06-16 09:00:00 12.9 2 Sudeste 9 Sudoeste 1 -- -- 100
2020-06-16 08:00:00 12.5 3 Sudoeste 9 Sudoeste 0.6 -- -- 100
2020-06-16 07:00:00 11.6 0 Calma 4 Nordeste 0.4 -- -- 100
2020-06-16 06:00:00 11.5 0 Calma 3 Norte 0 -- -- 100
2020-06-16 05:00:00 11.5 0 Calma 4 Nordeste 0 -- -- 100
2020-06-16 04:00:00 11.4 0 Calma 5 Nordeste 0 -- -- 100
2020-06-16 03:00:00 11.1 0 Calma 4 Nordeste 0 -- -- 100
2020-06-16 02:00:00 10.8 0 Calma 5 Nordeste 0 -- -- 100
2020-06-16 01:00:00 11.1 0 Calma 3 Sur 0 -- -- 100
2020-06-16 00:00:00 11.8 0 Calma 5 Este 0 -- -- 99
2020-06-15 23:00:00 12.2 2 Sudeste 5 Sudeste 0 -- -- 99
2020-06-15 22:00:00 12.9 0 Calma 3 Sudoeste 0 -- -- 93
2020-06-15 21:00:00 14.2 2 Norte 6 Nordeste 0 -- -- 90
2020-06-15 20:00:00 14.5 5 Nordeste 12 Nordeste 0 -- -- 88
2020-06-15 19:00:00 15 6 Este 12 Nordeste 0 -- -- 86
2020-06-15 18:00:00 14.6 5 Sudeste 13 Nordeste 0 -- -- 87
2020-06-15 17:00:00 15.6 5 Este 16 Nordeste 0 -- -- 81
2020-06-15 16:00:00 16.7 5 Nordeste 20 Nordeste 0 -- -- 80
2020-06-15 15:00:00 17.9 12 Nordeste 22 Nordeste 0 -- -- 77
2020-06-15 14:00:00 20.6 6 Sudoeste 24 Sudoeste 0 -- -- 64
2020-06-15 13:00:00 20.9 9 Sudoeste 27 Sudoeste 0 -- -- 62
2020-06-15 12:00:00 19.1 9 Sudoeste 23 Oeste 0 -- -- 67
2020-06-15 11:00:00 18.2 8 Sudoeste 20 Sudoeste 0 -- -- 73
2020-06-15 10:00:00 15.5 8 Sudoeste 22 Sudoeste 0 -- -- 86
2020-06-15 09:00:00 12.9 7 Sudoeste 15 Sudoeste 0 -- -- 100
2020-06-15 08:00:00 10.1 5 Sudoeste 10 Sudoeste 0 -- -- 100
2020-06-15 07:00:00 8.7 0 Calma 2 Sudoeste 0 -- -- 100
2020-06-15 06:00:00 9.1 0 Calma 2 Sur 0 -- -- 100
2020-06-15 05:00:00 10.3 0 Calma 4 Sudeste 0 -- -- 100
2020-06-15 04:00:00 11 0 Calma 2 Sur 0 -- -- 100
2020-06-15 03:00:00 11.6 0 Calma 4 Sur 0 -- -- 100
2020-06-15 02:00:00 12.1 0 Calma 3 Noroeste 0 -- -- 100
2020-06-15 01:00:00 12.5 0 Calma 4 Sudeste 0 -- -- 100
2020-06-15 00:00:00 12.8 0 Calma 4 Noroeste 0 -- -- 100
2020-06-14 23:00:00 13.3 3 Este 9 Norte 8 -- -- 98
2020-06-14 22:00:00 14.1 0 Calma 5 Sudeste 0 -- -- 96
2020-06-14 21:00:00 15.1 3 Este 13 Este 0.2 -- -- 91
2020-06-14 20:00:00 15.8 5 Sudeste 12 Este 0 -- -- 76
2020-06-14 19:00:00 16.9 5 Nordeste 13 Nordeste 0 -- -- 71
2020-06-14 18:00:00 17.4 6 Nordeste 16 Este 0 -- -- 74
2020-06-14 17:00:00 17.8 4 Este 18 Este 0 -- -- 71
2020-06-14 16:00:00 18.1 6 Nordeste 13 Nordeste 0 -- -- 69
2020-06-14 15:00:00 18.3 6 Nordeste 15 Nordeste 0 -- -- 73
2020-06-14 14:00:00 17.2 3 Sur 8 Sur 0 -- -- 69
2020-06-14 13:00:00 17.1 3 Sudoeste 12 Sudoeste 0 -- -- 70
2020-06-14 12:00:00 17.3 5 Este 17 Oeste 0 -- -- 66
2020-06-14 11:00:00 16.4 6 Sudoeste 16 Sudoeste 0 -- -- 68
2020-06-14 10:00:00 15.7 8 Sudoeste 17 Oeste 0 -- -- 75
2020-06-14 09:00:00 12.1 6 Sudoeste 13 Sudoeste 0 -- -- 100
2020-06-14 08:00:00 8.6 2 Sudoeste 5 Oeste 0 -- -- 100
2020-06-14 07:00:00 7.6 0 Calma 4 Oeste 0 -- -- 100
2020-06-14 06:00:00 7.3 0 Calma 4 Sudoeste 0 -- -- 100
2020-06-14 05:00:00 7.9 0 Calma 4 Sudeste 0 -- -- 100
2020-06-14 04:00:00 8.6 0 Calma 3 Este 0 -- -- 97
2020-06-14 03:00:00 10 0 Calma 4 Sudoeste 0 -- -- 96
2020-06-14 02:00:00 10.9 0 Calma 6 Nordeste 0 -- -- 95
2020-06-14 01:00:00 11.4 2 Nordeste 6 Nordeste 0 -- -- 94
2020-06-14 00:00:00 11.8 3 Nordeste 6 Norte 0 -- -- 92
2020-06-13 23:00:00 12.1 2 Este 11 Nordeste 0 -- -- 90
2020-06-13 22:00:00 12.5 5 Nordeste 13 Nordeste 0 -- -- 92
2020-06-13 21:00:00 13.4 5 Norte 16 Nordeste 0.2 -- -- 87
2020-06-13 20:00:00 14.8 6 Nordeste 13 Nordeste 0 -- -- 79
2020-06-13 19:00:00 15.5 4 Nordeste 16 Norte 0 -- -- 76
2020-06-13 18:00:00 16.7 8 Norte 17 Norte 0 -- -- 77
2020-06-13 17:00:00 16.5 4 Este 12 Este 0 -- -- 78
2020-06-13 16:00:00 17.2 5 Este 14 Este 0 -- -- 76
2020-06-13 15:00:00 15.9 7 Este 18 Nordeste 0.8 -- -- 80
2020-06-13 14:00:00 17.9 9 Este 19 Este 0 -- -- 65
2020-06-13 13:00:00 19.4 7 Sur 22 Este 0 -- -- 60
2020-06-13 12:00:00 19.3 8 Sudoeste 18 Oeste 0 -- -- 55
2020-06-13 11:00:00 18.2 7 Oeste 18 Sudoeste 0 -- -- 53
2020-06-13 10:00:00 15.7 2 Sur 5 Sur 0 -- -- 65
2020-06-13 09:00:00 9.1 0 Calma 4 Nordeste 0 -- -- 100
2020-06-13 08:00:00 6.7 0 Calma 5 Sur 0 -- -- 100
2020-06-13 07:00:00 5.8 0 Calma 9 Sur 0 -- -- 100
2020-06-13 06:00:00 5.8 4 Sudoeste 10 Sudoeste 0 -- -- 100
2020-06-13 05:00:00 5.8 0 Calma 4 Sudoeste 0 -- -- 100
2020-06-13 04:00:00 6.1 0 Calma 7 Sudoeste 0 -- -- 99
2020-06-13 03:00:00 6.5 0 Calma 4 Sudoeste 0 -- -- 99
2020-06-13 02:00:00 6.8 0 Calma 3 Sudeste 0 -- -- 96
2020-06-13 01:00:00 7.9 0 Calma 5 Nordeste 0 -- -- 94
2020-06-13 00:00:00 9.1 0 Calma 6 Oeste 0 -- -- 89
2020-06-12 23:00:00 10.3 4 Sur 8 Sudoeste 0 -- -- 83
2020-06-12 22:00:00 10.9 0 Calma 4 Sur 0 -- -- 83
2020-06-12 21:00:00 14.1 2 Sur 20 Oeste 0 -- -- 71
2020-06-12 20:00:00 17.5 9 Sudoeste 28 Sudoeste 0 -- -- 49
2020-06-12 19:00:00 18.5 11 Sudoeste 33 Sudoeste 0 -- -- 45
2020-06-12 18:00:00 19.4 12 Sudoeste 40 Oeste 0 -- -- 45
2020-06-12 17:00:00 19.5 12 Sudoeste 41 Sudoeste 0 -- -- 46
2020-06-12 16:00:00 19.3 17 Sudoeste 38 Oeste 0 -- -- 46
2020-06-12 15:00:00 18.9 17 Sudoeste 41 Sudoeste 0 -- -- 50
2020-06-12 14:00:00 19.2 17 Sudoeste 42 Sur 0 -- -- 52
2020-06-12 13:00:00 18.5 15 Sudoeste 34 Sur 0 -- -- 56
2020-06-12 12:00:00 18.2 12 Sudoeste 37 Sudoeste 0 -- -- 66
2020-06-12 11:00:00 17.3 10 Sudoeste 23 Sudoeste 0 -- -- 81
2020-06-12 10:00:00 14.8 10 Sudoeste 21 Oeste 0 -- -- 96
2020-06-12 09:00:00 12.9 7 Sudoeste 18 Oeste 0 -- -- 100
2020-06-12 08:00:00 12.1 4 Sudoeste 8 Sudoeste 0 -- -- 100
2020-06-12 07:00:00 11.8 3 Oeste 18 Oeste 5.6 -- -- 100
2020-06-12 06:00:00 12.6 2 Oeste 10 Sur 0.8 -- -- 100
2020-06-12 05:00:00 12.7 0 Calma 9 Este 0 -- -- 100
2020-06-12 04:00:00 12.6 2 Norte 7 Sudeste 0.2 -- -- 100
2020-06-12 03:00:00 12.5 0 Calma 6 Oeste 0 -- -- 100
2020-06-12 02:00:00 12 0 Calma 4 Oeste 0 -- -- 100
2020-06-12 01:00:00 12.2 0 Calma 5 Oeste 0 -- -- 100
2020-06-12 00:00:00 12.9 3 Sur 6 Sudoeste 0 -- -- 100
2020-06-11 23:00:00 13 2 Sur 4 Oeste 0.2 -- -- 98
2020-06-11 22:00:00 13.7 0 Calma 5 Sudoeste 0.2 -- -- 95
2020-06-11 21:00:00 14.6 2 Sudoeste 6 Sudoeste 0 -- -- 90
2020-06-11 20:00:00 15.2 4 Sudoeste 14 Sudoeste 0 -- -- 84
2020-06-11 19:00:00 15.4 6 Sudoeste 14 Sudoeste 0 -- -- 83
2020-06-11 18:00:00 15 8 Sudoeste 21 Oeste 0 -- -- 84
2020-06-11 17:00:00 16.3 9 Sudoeste 23 Sur 0 -- -- 78
2020-06-11 16:00:00 17 11 Sudoeste 28 Oeste 0 -- -- 74
2020-06-11 15:00:00 17 13 Sudoeste 31 Sudoeste 0 -- -- 72
2020-06-11 14:00:00 14 7 Sudoeste 20 Sudoeste 0 -- -- 83
2020-06-11 13:00:00 14.9 11 Sudoeste 29 Sudoeste 0 -- -- 75
2020-06-11 12:00:00 13.1 13 Sudoeste 30 Oeste 0 -- -- 85
2020-06-11 11:00:00 13.5 14 Sudoeste 29 Sudoeste 0 -- -- 83
2020-06-11 10:00:00 12.8 9 Sudoeste 23 Sudoeste 0 -- -- 93
2020-06-11 09:00:00 10.9 6 Sudoeste 17 Oeste 0 -- -- 100
2020-06-11 08:00:00 9.8 5 Sudoeste 15 Oeste 0 -- -- 100
2020-06-11 07:00:00 9.5 3 Sudoeste 13 Oeste 0 -- -- 100
2020-06-11 06:00:00 9.5 5 Sudoeste 11 Oeste 0 -- -- 100
2020-06-11 05:00:00 9.3 0 Calma 5 Oeste 0 -- -- 100
2020-06-11 04:00:00 9.6 0 Calma 6 Norte 0 -- -- 100
2020-06-11 03:00:00 9.8 4 Norte 8 Norte 2 -- -- 100
2020-06-11 02:00:00 9.8 3 Este 5 Este 0.4 -- -- 100
2020-06-11 01:00:00 9.8 0 Calma 4 Norte 1.8 -- -- 100
2020-06-11 00:00:00 9.9 0 Calma 7 Sudeste 3.4 -- -- 100
2020-06-10 23:00:00 10.3 2 Oeste 7 Sudeste 3.8 -- -- 100
2020-06-10 22:00:00 10.8 4 Sur 12 Sudeste 1 -- -- 97
2020-06-10 21:00:00 11.5 0 Calma 10 Nordeste 1.8 -- -- 99
2020-06-10 20:00:00 11.9 6 Nordeste 17 Nordeste 0.4 -- -- 97
2020-06-10 19:00:00 12.6 5 Nordeste 12 Nordeste 0 -- -- 93
2020-06-10 18:00:00 13.7 6 Este 13 Este 0 -- -- 81
2020-06-10 17:00:00 13.8 6 Nordeste 13 Nordeste 0 -- -- 78
2020-06-10 16:00:00 14.4 7 Nordeste 21 Este 0 -- -- 76
2020-06-10 15:00:00 14.5 11 Sudeste 21 Este 0 -- -- 76
2020-06-10 14:00:00 14.1 9 Este 17 Este 0.6 -- -- 79
2020-06-10 13:00:00 14.7 8 Nordeste 19 Este 0 -- -- 72
2020-06-10 12:00:00 16.5 6 Este 17 Nordeste 0 -- -- 66
2020-06-10 11:00:00 15.7 5 Sudeste 12 Este 0 -- -- 70
2020-06-10 10:00:00 12.7 5 Sudoeste 12 Sudoeste 0 -- -- 84
2020-06-10 09:00:00 8.9 6 Sudoeste 14 Oeste 0 -- -- 100
2020-06-10 08:00:00 7.4 3 Sudoeste 6 Sudoeste 0 -- -- 100
2020-06-10 07:00:00 6.5 4 Noroeste 8 Oeste 0 -- -- 100
2020-06-10 06:00:00 6.8 3 Noroeste 8 Norte 0 -- -- 100
2020-06-10 05:00:00 7.4 2 Noroeste 8 Norte 0 -- -- 100
2020-06-10 04:00:00 7.9 3 Oeste 9 Sudoeste 0 -- -- 100
2020-06-10 03:00:00 8.3 3 Sudoeste 10 Oeste 0 -- -- 100
2020-06-10 02:00:00 8.5 4 Oeste 13 Oeste 0 -- -- 100
2020-06-10 01:00:00 9.1 2 Noroeste 10 Oeste 0 -- -- 100
2020-06-10 00:00:00 8.9 3 Sudoeste 8 Sudoeste 0 -- -- 100
2020-06-09 23:00:00 8.6 0 Calma 6 Sur 0 -- -- 99
2020-06-09 22:00:00 10.2 0 Calma 4 Sudeste 0 -- -- 96
2020-06-09 21:00:00 11.4 3 Sur 6 Oeste 0 -- -- 96
2020-06-09 20:00:00 12.1 0 Calma 5 Sudeste 0.2 -- -- 94
2020-06-09 19:00:00 12.7 2 Este 9 Sudeste 0 -- -- 86
2020-06-09 18:00:00 13.2 5 Sudeste 13 Nordeste 0 -- -- 75
2020-06-09 17:00:00 14.2 8 Este 12 Este 0 -- -- 72
2020-06-09 16:00:00 12.8 3 Noroeste 16 Oeste 0.4 -- -- 90
2020-06-09 15:00:00 12.5 6 Este 18 Este 0 -- -- 80
2020-06-09 14:00:00 14.6 5 Sudeste 14 Este 0 -- -- 71
2020-06-09 13:00:00 13.7 5 Nordeste 14 Nordeste 0 -- -- 81
2020-06-09 12:00:00 13.8 5 Este 11 Este 0 -- -- 78
2020-06-09 11:00:00 13.9 5 Este 9 Nordeste 0 -- -- 72
2020-06-09 10:00:00 11.4 0 Calma 6 Sudoeste 0 -- -- 86
2020-06-09 09:00:00 8.5 2 Sudoeste 5 Oeste 0 -- -- 100
2020-06-09 08:00:00 7 0 Calma 3 Sur 0 -- -- 100
2020-06-09 07:00:00 6.5 0 Calma 9 Norte 0 -- -- 99
2020-06-09 06:00:00 6.7 3 Norte 11 Norte 0 -- -- 100
2020-06-09 05:00:00 6.9 3 Nordeste 10 Noroeste 0 -- -- 100
2020-06-09 04:00:00 7.3 0 Calma 8 Norte 0 -- -- 100
2020-06-09 03:00:00 8.1 3 Norte 13 Oeste 0 -- -- 100
2020-06-09 02:00:00 8.3 4 Oeste 10 Sudoeste 0 -- -- 100
2020-06-09 01:00:00 8.4 2 Noroeste 11 Oeste 0 -- -- 100
2020-06-09 00:00:00 8.8 5 Sudoeste 13 Oeste 0 -- -- 100
2020-06-08 23:00:00 9.2 3 Sudoeste 12 Oeste 0 -- -- 100
2020-06-08 22:00:00 9.8 3 Sudoeste 8 Sudoeste 0 -- -- 98
2020-06-08 21:00:00 10.9 2 Sur 11 Sur 0.2 -- -- 96
2020-06-08 20:00:00 11.9 0 Calma 9 Nordeste 0 -- -- 94
2020-06-08 19:00:00 12.3 4 Este 10 Sur 0 -- -- 92
2020-06-08 18:00:00 13.6 5 Sur 11 Sur 0 -- -- 81
2020-06-08 17:00:00 11.9 3 Noroeste 7 Nordeste 0.2 -- -- 95
2020-06-08 16:00:00 11.4 5 Este 14 Nordeste 0.2 -- -- 95
2020-06-08 15:00:00 12.3 8 Este 15 Sudeste 2.8 -- -- 87
2020-06-08 14:00:00 12.9 8 Nordeste 14 Nordeste 0 -- -- 91
2020-06-08 13:00:00 12.3 4 Norte 18 Este 2 -- -- 94
2020-06-08 12:00:00 13.8 8 Este 15 Este 0 -- -- 80
2020-06-08 11:00:00 13.2 5 Sur 13 Sur 0 -- -- 88
2020-06-08 10:00:00 11.4 2 Nordeste 8 Nordeste 0 -- -- 100
2020-06-08 09:00:00 10.2 2 Nordeste 5 Este 0 -- -- 100
2020-06-08 08:00:00 9.5 0 Calma 5 Nordeste 0.2 -- -- 100
2020-06-08 07:00:00 8.9 2 Norte 5 Nordeste 0.6 -- -- 100
2020-06-08 06:00:00 8.9 3 Nordeste 7 Este 1 -- -- 100
2020-06-08 05:00:00 9.2 3 Nordeste 6 Este 1.2 -- -- 100
2020-06-08 04:00:00 9.3 2 Nordeste 7 Norte 0 -- -- 100
2020-06-08 03:00:00 9.9 0 Calma 7 Sudoeste 0.2 -- -- 100
2020-06-08 02:00:00 10 2 Sudoeste 9 Sudoeste 0 -- -- 100
2020-06-08 01:00:00 10 3 Sudoeste 8 Sudoeste 0.2 -- -- 100
2020-06-08 00:00:00 10 5 Sudoeste 10 Oeste 0 -- -- 100
2020-06-07 23:00:00 10.1 2 Sudoeste 5 Sudoeste 0.8 -- -- 100
2020-06-07 22:00:00 10.2 0 Calma 9 Sudoeste 1.8 -- -- 100
2020-06-07 21:00:00 10.3 3 Sudoeste 10 Oeste 3 -- -- 100
2020-06-07 20:00:00 10.7 0 Calma 6 Sudeste 2.4 -- -- 100
2020-06-07 19:00:00 10.9 3 Nordeste 9 Este 4.2 -- -- 100
2020-06-07 18:00:00 11.5 0 Calma 7 Oeste 2.4 -- -- 100
2020-06-07 17:00:00 11.9 2 Oeste 13 Nordeste 4.4 -- -- 98
2020-06-07 16:00:00 12.3 6 Este 16 Este 0.2 -- -- 93
2020-06-07 15:00:00 12.3 3 Sur 11 Nordeste 1 -- -- 100
2020-06-07 14:00:00 11.8 5 Este 14 Nordeste 5.4 -- -- 99
2020-06-07 13:00:00 12.6 7 Nordeste 19 Este 2 -- -- 100
2020-06-07 12:00:00 13.1 6 Este 18 Sudeste 0.8 -- -- 97
2020-06-07 11:00:00 14.2 5 Nordeste 11 Este 0 -- -- 98
2020-06-07 10:00:00 13.4 4 Este 9 Sudeste 0.2 -- -- 100
2020-06-07 09:00:00 12.8 0 Calma 3 Este 0 -- -- 100
2020-06-07 08:00:00 12.1 0 Calma 10 Sudoeste 0 -- -- 100
2020-06-07 07:00:00 11.8 0 Calma 4 Sudeste 0 -- -- 100
2020-06-07 06:00:00 12.2 0 Calma 10 Nordeste 0 -- -- 100
2020-06-07 05:00:00 12 2 Nordeste 6 Norte 0 -- -- 100
2020-06-07 04:00:00 12.3 3 Nordeste 10 Este 0 -- -- 100
2020-06-07 03:00:00 12.5 3 Sudoeste 15 Sudeste 8.8 -- -- 100
2020-06-07 02:00:00 11.9 4 Nordeste 8 Nordeste 0.2 -- -- 100
2020-06-07 01:00:00 11.4 4 Este 7 Sudeste 0 -- -- 100
2020-06-07 00:00:00 11.2 4 Nordeste 9 Nordeste 1.2 -- -- 100
2020-06-06 23:00:00 10.6 3 Sudeste 7 Este 0.4 -- -- 100
2020-06-06 22:00:00 10.4 2 Nordeste 18 Oeste 8 -- -- 99
2020-06-06 21:00:00 13.5 9 Nordeste 16 Este 2.4 -- -- 100
2020-06-06 20:00:00 14.7 10 Nordeste 16 Nordeste 0.8 -- -- 100
2020-06-06 19:00:00 15.1 4 Este 18 Sudeste 0 -- -- 100
2020-06-06 18:00:00 15.8 5 Nordeste 15 Este 0 -- -- 96
2020-06-06 17:00:00 16.8 7 Este 17 Nordeste 0 -- -- 92
2020-06-06 16:00:00 18.3 9 Sudeste 17 Este 0 -- -- 85
2020-06-06 15:00:00 18.9 9 Este 18 Este 0 -- -- 80
2020-06-06 14:00:00 18.6 10 Este 20 Este 0 -- -- 80
2020-06-06 13:00:00 18.8 6 Sur 18 Sudeste 0 -- -- 78
2020-06-06 12:00:00 18 7 Sudeste 18 Sudeste 0 -- -- 83
2020-06-06 11:00:00 16.9 6 Sudeste 19 Sudeste 0 -- -- 82
2020-06-06 10:00:00 16.3 5 Sudeste 13 Sudeste 0 -- -- 83
2020-06-06 09:00:00 13.3 3 Sudoeste 9 Sudoeste 0 -- -- 99
2020-06-06 08:00:00 11.5 0 Calma 5 Nordeste 0 -- -- 100
2020-06-06 07:00:00 11 0 Calma 7 Norte 0 -- -- 100
2020-06-06 06:00:00 11.5 2 Oeste 13 Sudoeste 0 -- -- 100
2020-06-06 05:00:00 11.8 5 Sudoeste 11 Sudoeste 0 -- -- 100
2020-06-06 04:00:00 11.8 2 Oeste 7 Sudoeste 0 -- -- 100
2020-06-06 03:00:00 11.3 3 Sur 6 Sur 0 -- -- 100
2020-06-06 02:00:00 11 0 Calma 3 Sur 0 -- -- 100
2020-06-06 01:00:00 11.5 2 Sudoeste 5 Oeste 0 -- -- 98
2020-06-06 00:00:00 12.7 0 Calma 4 Sur 0 -- -- 97
2020-06-05 23:00:00 14 0 Calma 5 Este 0 -- -- 95
2020-06-05 22:00:00 14.4 3 Nordeste 8 Nordeste 0 -- -- 93
2020-06-05 21:00:00 14.8 3 Nordeste 10 Este 0 -- -- 90
2020-06-05 20:00:00 15.2 5 Este 12 Nordeste 0 -- -- 87
2020-06-05 19:00:00 15.7 6 Este 10 Este 0 -- -- 86
2020-06-05 18:00:00 16.4 5 Nordeste 12 Este 0 -- -- 80
2020-06-05 17:00:00 17.4 5 Sudeste 14 Este 0 -- -- 75
2020-06-05 16:00:00 17.6 6 Nordeste 15 Sudeste 0 -- -- 75
2020-06-05 15:00:00 16.8 7 Este 15 Este 0 -- -- 73
2020-06-05 14:00:00 16.9 6 Sur 15 Sur 0 -- -- 74
2020-06-05 13:00:00 16.4 4 Nordeste 13 Este 0 -- -- 74
2020-06-05 12:00:00 14.4 4 Nordeste 9 Sudeste 0 -- -- 81
2020-06-05 11:00:00 12.8 3 Nordeste 7 Nordeste 0 -- -- 86
2020-06-05 10:00:00 11.3 0 Calma 4 Sudoeste 0 -- -- 95
2020-06-05 09:00:00 10.8 3 Sudoeste 5 Sudoeste 0 -- -- 93
2020-06-05 08:00:00 9.3 4 Nordeste 9 Este 0 -- -- 96
2020-06-05 07:00:00 6.2 0 Calma 8 Nordeste 0 -- -- 100
2020-06-05 06:00:00 6.6 4 Este 9 Nordeste 0 -- -- 100
2020-06-05 05:00:00 6.5 2 Nordeste 9 Nordeste 0 -- -- 100
2020-06-05 04:00:00 6.5 0 Calma 4 Este 0 -- -- 100
2020-06-05 03:00:00 7.1 0 Calma 7 Sur 0 -- -- 100
2020-06-05 02:00:00 7.3 3 Oeste 9 Noroeste 0 -- -- 100
2020-06-05 01:00:00 8.4 2 Sudoeste 6 Sur 0 -- -- 100
2020-06-05 00:00:00 8.4 3 Sudoeste 8 Sudoeste 0 -- -- 100
2020-06-04 23:00:00 8.9 3 Noroeste 7 Norte 0 -- -- 100
2020-06-04 22:00:00 8.7 0 Calma 5 Sudoeste 0 -- -- 100
2020-06-04 21:00:00 9.9 0 Calma 6 Oeste 0 -- -- 100
2020-06-04 20:00:00 10.5 2 Noroeste 9 Nordeste 0 -- -- 99
2020-06-04 19:00:00 10.4 5 Nordeste 12 Este 1.2 -- -- 100
2020-06-04 18:00:00 9.7 3 Noroeste 16 Norte 9.8 -- -- 99
2020-06-04 17:00:00 10.7 6 Norte 19 Norte 5.2 -- -- 94
2020-06-04 16:00:00 13.9 6 Este 16 Nordeste 0 -- -- 89
2020-06-04 15:00:00 12.9 6 Nordeste 13 Este 0 -- -- 100
2020-06-04 14:00:00 11.9 5 Norte 17 Norte 0 -- -- 100
2020-06-04 13:00:00 12.6 6 Nordeste 17 Nordeste 0 -- -- 100
2020-06-04 12:00:00 13.6 3 Este 11 Sudoeste 0 -- -- 95
2020-06-04 11:00:00 13.2 5 Sudoeste 15 Sudoeste 1.2 -- -- 99
2020-06-04 10:00:00 13.1 4 Sur 9 Sudoeste 0.2 -- -- 100
2020-06-04 09:00:00 12.6 3 Sudoeste 7 Sudoeste 3.2 -- -- 100
2020-06-04 08:00:00 12.4 2 Sudoeste 8 Noroeste 2 -- -- 100
2020-06-04 07:00:00 12.3 0 Calma 6 Nordeste 0.8 -- -- 100
2020-06-04 06:00:00 12.2 2 Nordeste 6 Este 0 -- -- 100
2020-06-04 05:00:00 12.3 3 Norte 10 Norte 0 -- -- 100
2020-06-04 04:00:00 12.8 2 Norte 9 Oeste 0 -- -- 100
2020-06-04 03:00:00 12.7 3 Sudoeste 11 Oeste 0 -- -- 100
2020-06-04 02:00:00 13.2 4 Sudoeste 11 Sudoeste 0 -- -- 100
2020-06-04 01:00:00 13.3 3 Sudoeste 8 Sur 0 -- -- 100
2020-06-04 00:00:00 13.3 0 Calma 13 Sudoeste 0 -- -- 100
2020-06-03 23:00:00 13.2 6 Sudoeste 14 Sudoeste 0 -- -- 100
2020-06-03 22:00:00 13.5 6 Sudoeste 30 Noroeste 0.8 -- -- 98
2020-06-03 21:00:00 15.3 10 Sudoeste 24 Oeste 0.8 -- -- 94
2020-06-03 20:00:00 16.5 0 Calma 8 Nordeste 0.2 -- -- 97
2020-06-03 19:00:00 16.6 3 Este 8 Nordeste 0 -- -- 93
2020-06-03 18:00:00 16.2 0 Calma 13 Norte 2 -- -- 99
2020-06-03 17:00:00 16.4 4 Norte 11 Nordeste 1.2 -- -- 96
2020-06-03 16:00:00 17.5 3 Sudoeste 12 Este 2.4 -- -- 91
2020-06-03 15:00:00 19.7 3 Sur 10 Sur 0 -- -- 86
2020-06-03 14:00:00 16.1 2 Sudeste 24 Norte 6.2 -- -- 91
2020-06-03 13:00:00 18.7 3 Sudeste 12 Este 0.4 -- -- 86
2020-06-03 12:00:00 20.7 3 Este 12 Sudeste 0 -- -- 72
2020-06-03 11:00:00 18.1 3 Sudoeste 8 Sudoeste 0 -- -- 87
2020-06-03 10:00:00 16 3 Sudoeste 7 Sudoeste 0 -- -- 96
2020-06-03 09:00:00 -- 3 Sudoeste 8 Sudoeste 0.2 -- -- --
2020-06-03 08:00:00 13.3 3 Sudoeste 10 Oeste 0 -- -- 100
2020-06-03 07:00:00 12.9 0 Calma 7 Oeste 0 -- -- 100
2020-06-03 06:00:00 13 0 Calma 12 Sudoeste 0 -- -- 100
2020-06-03 05:00:00 13.3 2 Oeste 8 Oeste 0 -- -- 100
2020-06-03 04:00:00 13 2 Norte 5 Norte 0 -- -- 100
2020-06-03 03:00:00 13.2 3 Norte 9 Oeste 0 -- -- 100
2020-06-03 02:00:00 13.6 0 Calma 6 Norte 0 -- -- 100
2020-06-03 01:00:00 14.3 2 Sudoeste 6 Oeste 0 -- -- 100
2020-06-03 00:00:00 14.7 4 Sudoeste 8 Oeste 0 -- -- 100